sensor_id;sensor_type;location;lat;lon;timestamp;P1;durP1;ratioP1;P2;durP2;ratioP2
73599;SDS011;61877;48.246;9.220;2024-02-23T00:00:46;4.60;;;1.70;;
73599;SDS011;61877;48.246;9.220;2024-02-23T00:03:14;4.35;;;1.30;;
73599;SDS011;61877;48.246;9.220;2024-02-23T00:05:40;5.22;;;1.70;;
73599;SDS011;61877;48.246;9.220;2024-02-23T00:08:09;4.40;;;1.50;;
73599;SDS011;61877;48.246;9.220;2024-02-23T00:10:36;5.05;;;1.65;;
73599;SDS011;61877;48.246;9.220;2024-02-23T00:13:02;4.93;;;1.90;;
73599;SDS011;61877;48.246;9.220;2024-02-23T00:15:29;5.10;;;1.80;;
73599;SDS011;61877;48.246;9.220;2024-02-23T00:17:56;4.90;;;2.03;;
73599;SDS011;61877;48.246;9.220;2024-02-23T00:20:26;5.13;;;1.50;;
73599;SDS011;61877;48.246;9.220;2024-02-23T00:22:53;5.70;;;1.85;;
73599;SDS011;61877;48.246;9.220;2024-02-23T00:25:20;5.50;;;1.55;;
73599;SDS011;61877;48.246;9.220;2024-02-23T00:27:46;4.50;;;1.35;;
73599;SDS011;61877;48.246;9.220;2024-02-23T00:30:13;4.95;;;1.60;;
73599;SDS011;61877;48.246;9.220;2024-02-23T00:32:40;4.17;;;1.33;;
73599;SDS011;61877;48.246;9.220;2024-02-23T00:35:07;4.07;;;1.40;;
73599;SDS011;61877;48.246;9.220;2024-02-23T00:37:35;4.50;;;1.75;;
73599;SDS011;61877;48.246;9.220;2024-02-23T00:40:01;4.50;;;1.70;;
73599;SDS011;61877;48.246;9.220;2024-02-23T00:42:28;5.20;;;1.98;;
73599;SDS011;61877;48.246;9.220;2024-02-23T00:44:55;5.20;;;2.20;;
73599;SDS011;61877;48.246;9.220;2024-02-23T00:47:22;4.78;;;1.80;;
73599;SDS011;61877;48.246;9.220;2024-02-23T00:49:49;4.72;;;1.85;;
73599;SDS011;61877;48.246;9.220;2024-02-23T00:52:15;4.70;;;1.75;;
73599;SDS011;61877;48.246;9.220;2024-02-23T00:54:43;5.95;;;2.28;;
73599;SDS011;61877;48.246;9.220;2024-02-23T00:57:10;4.80;;;1.77;;
73599;SDS011;61877;48.246;9.220;2024-02-23T00:59:36;4.95;;;1.80;;
73599;SDS011;61877;48.246;9.220;2024-02-23T01:02:03;4.95;;;1.95;;
73599;SDS011;61877;48.246;9.220;2024-02-23T01:04:29;6.05;;;2.38;;
73599;SDS011;61877;48.246;9.220;2024-02-23T01:06:57;4.78;;;1.85;;
73599;SDS011;61877;48.246;9.220;2024-02-23T01:09:24;4.60;;;1.50;;
73599;SDS011;61877;48.246;9.220;2024-02-23T01:11:52;4.70;;;1.80;;
73599;SDS011;61877;48.246;9.220;2024-02-23T01:14:21;5.20;;;2.33;;
73599;SDS011;61877;48.246;9.220;2024-02-23T01:16:48;4.80;;;1.88;;
73599;SDS011;61877;48.246;9.220;2024-02-23T01:19:14;5.13;;;1.83;;
73599;SDS011;61877;48.246;9.220;2024-02-23T01:21:41;4.67;;;1.83;;
73599;SDS011;61877;48.246;9.220;2024-02-23T01:24:07;4.70;;;1.98;;
73599;SDS011;61877;48.246;9.220;2024-02-23T01:26:34;6.20;;;2.05;;
73599;SDS011;61877;48.246;9.220;2024-02-23T01:29:02;5.53;;;2.70;;
73599;SDS011;61877;48.246;9.220;2024-02-23T01:31:28;5.28;;;2.40;;
73599;SDS011;61877;48.246;9.220;2024-02-23T01:33:55;5.30;;;2.20;;
73599;SDS011;61877;48.246;9.220;2024-02-23T01:36:21;4.90;;;1.90;;
73599;SDS011;61877;48.246;9.220;2024-02-23T01:38:48;4.82;;;1.98;;
73599;SDS011;61877;48.246;9.220;2024-02-23T01:41:15;4.70;;;1.85;;
73599;SDS011;61877;48.246;9.220;2024-02-23T01:43:41;4.55;;;1.63;;
73599;SDS011;61877;48.246;9.220;2024-02-23T01:46:09;4.30;;;1.57;;
73599;SDS011;61877;48.246;9.220;2024-02-23T01:48:36;4.15;;;1.38;;
73599;SDS011;61877;48.246;9.220;2024-02-23T01:51:03;4.55;;;1.70;;
73599;SDS011;61877;48.246;9.220;2024-02-23T01:53:29;4.32;;;1.58;;
73599;SDS011;61877;48.246;9.220;2024-02-23T01:55:57;4.40;;;1.60;;
73599;SDS011;61877;48.246;9.220;2024-02-23T01:58:25;4.30;;;1.60;;
73599;SDS011;61877;48.246;9.220;2024-02-23T02:00:51;4.28;;;1.52;;
73599;SDS011;61877;48.246;9.220;2024-02-23T02:03:19;4.28;;;1.45;;
73599;SDS011;61877;48.246;9.220;2024-02-23T02:05:46;4.15;;;1.42;;
73599;SDS011;61877;48.246;9.220;2024-02-23T02:08:12;4.32;;;1.30;;
73599;SDS011;61877;48.246;9.220;2024-02-23T02:10:39;3.83;;;1.33;;
73599;SDS011;61877;48.246;9.220;2024-02-23T02:13:06;4.60;;;1.67;;
73599;SDS011;61877;48.246;9.220;2024-02-23T02:15:32;4.20;;;1.50;;
73599;SDS011;61877;48.246;9.220;2024-02-23T02:17:59;4.63;;;1.75;;
73599;SDS011;61877;48.246;9.220;2024-02-23T02:20:27;4.90;;;2.00;;
73599;SDS011;61877;48.246;9.220;2024-02-23T02:22:54;4.83;;;2.07;;
73599;SDS011;61877;48.246;9.220;2024-02-23T02:25:21;5.05;;;2.08;;
73599;SDS011;61877;48.246;9.220;2024-02-23T02:27:50;4.50;;;1.75;;
73599;SDS011;61877;48.246;9.220;2024-02-23T02:30:17;4.80;;;1.92;;
73599;SDS011;61877;48.246;9.220;2024-02-23T02:32:43;4.70;;;1.98;;
73599;SDS011;61877;48.246;9.220;2024-02-23T02:35:10;4.57;;;1.40;;
73599;SDS011;61877;48.246;9.220;2024-02-23T02:37:39;4.60;;;1.67;;
73599;SDS011;61877;48.246;9.220;2024-02-23T02:40:06;4.70;;;1.80;;
73599;SDS011;61877;48.246;9.220;2024-02-23T02:42:33;4.28;;;1.40;;
73599;SDS011;61877;48.246;9.220;2024-02-23T02:45:00;4.82;;;1.50;;
73599;SDS011;61877;48.246;9.220;2024-02-23T02:47:27;4.63;;;1.63;;
73599;SDS011;61877;48.246;9.220;2024-02-23T02:49:54;4.45;;;1.45;;
73599;SDS011;61877;48.246;9.220;2024-02-23T02:52:20;4.70;;;1.80;;
73599;SDS011;61877;48.246;9.220;2024-02-23T02:54:48;4.20;;;1.52;;
73599;SDS011;61877;48.246;9.220;2024-02-23T02:57:15;4.53;;;1.75;;
73599;SDS011;61877;48.246;9.220;2024-02-23T02:59:42;4.80;;;1.50;;
73599;SDS011;61877;48.246;9.220;2024-02-23T03:02:08;4.68;;;1.42;;
73599;SDS011;61877;48.246;9.220;2024-02-23T03:04:35;5.00;;;1.90;;
73599;SDS011;61877;48.246;9.220;2024-02-23T03:07:02;5.20;;;1.90;;
73599;SDS011;61877;48.246;9.220;2024-02-23T03:09:28;4.65;;;1.55;;
73599;SDS011;61877;48.246;9.220;2024-02-23T03:11:56;5.30;;;1.67;;
73599;SDS011;61877;48.246;9.220;2024-02-23T03:14:23;4.82;;;1.88;;
73599;SDS011;61877;48.246;9.220;2024-02-23T03:16:49;5.75;;;2.97;;
73599;SDS011;61877;48.246;9.220;2024-02-23T03:19:16;4.97;;;1.90;;
73599;SDS011;61877;48.246;9.220;2024-02-23T03:21:43;5.00;;;2.10;;
73599;SDS011;61877;48.246;9.220;2024-02-23T03:24:09;4.63;;;1.63;;
73599;SDS011;61877;48.246;9.220;2024-02-23T03:26:36;4.90;;;1.73;;
73599;SDS011;61877;48.246;9.220;2024-02-23T03:29:04;5.03;;;1.80;;
73599;SDS011;61877;48.246;9.220;2024-02-23T03:31:31;4.63;;;1.70;;
73599;SDS011;61877;48.246;9.220;2024-02-23T03:33:58;5.00;;;1.52;;
73599;SDS011;61877;48.246;9.220;2024-02-23T03:36:24;4.70;;;1.40;;
73599;SDS011;61877;48.246;9.220;2024-02-23T03:38:51;4.65;;;1.65;;
73599;SDS011;61877;48.246;9.220;2024-02-23T03:41:18;4.93;;;1.60;;
73599;SDS011;61877;48.246;9.220;2024-02-23T03:43:44;5.40;;;1.83;;
73599;SDS011;61877;48.246;9.220;2024-02-23T03:46:12;4.72;;;1.70;;
73599;SDS011;61877;48.246;9.220;2024-02-23T03:48:39;4.60;;;1.57;;
73599;SDS011;61877;48.246;9.220;2024-02-23T03:51:06;5.40;;;1.77;;
73599;SDS011;61877;48.246;9.220;2024-02-23T03:53:35;4.88;;;1.60;;
73599;SDS011;61877;48.246;9.220;2024-02-23T03:56:01;4.80;;;1.70;;
73599;SDS011;61877;48.246;9.220;2024-02-23T03:58:28;5.63;;;1.60;;
73599;SDS011;61877;48.246;9.220;2024-02-23T04:00:55;4.80;;;1.37;;
73599;SDS011;61877;48.246;9.220;2024-02-23T04:03:23;5.75;;;1.52;;
73599;SDS011;61877;48.246;9.220;2024-02-23T04:05:50;4.45;;;1.60;;
73599;SDS011;61877;48.246;9.220;2024-02-23T04:08:16;5.15;;;1.80;;
73599;SDS011;61877;48.246;9.220;2024-02-23T04:10:43;5.32;;;1.77;;
73599;SDS011;61877;48.246;9.220;2024-02-23T04:13:09;5.00;;;1.70;;
73599;SDS011;61877;48.246;9.220;2024-02-23T04:15:36;5.18;;;2.00;;
73599;SDS011;61877;48.246;9.220;2024-02-23T04:18:03;5.75;;;1.73;;
73599;SDS011;61877;48.246;9.220;2024-02-23T04:20:31;5.30;;;1.67;;
73599;SDS011;61877;48.246;9.220;2024-02-23T04:22:58;5.10;;;2.00;;
73599;SDS011;61877;48.246;9.220;2024-02-23T04:25:24;4.73;;;1.60;;
73599;SDS011;61877;48.246;9.220;2024-02-23T04:27:51;5.07;;;1.77;;
73599;SDS011;61877;48.246;9.220;2024-02-23T04:30:18;5.00;;;1.85;;
73599;SDS011;61877;48.246;9.220;2024-02-23T04:32:44;5.00;;;2.00;;
73599;SDS011;61877;48.246;9.220;2024-02-23T04:35:11;4.90;;;2.00;;
73599;SDS011;61877;48.246;9.220;2024-02-23T04:37:39;5.10;;;1.93;;
73599;SDS011;61877;48.246;9.220;2024-02-23T04:40:06;7.22;;;2.15;;
73599;SDS011;61877;48.246;9.220;2024-02-23T04:42:33;6.18;;;2.17;;
73599;SDS011;61877;48.246;9.220;2024-02-23T04:45:00;6.35;;;1.90;;
73599;SDS011;61877;48.246;9.220;2024-02-23T04:47:26;5.40;;;1.75;;
73599;SDS011;61877;48.246;9.220;2024-02-23T04:49:53;5.27;;;1.93;;
73599;SDS011;61877;48.246;9.220;2024-02-23T04:52:20;5.60;;;1.92;;
73599;SDS011;61877;48.246;9.220;2024-02-23T04:54:48;5.10;;;2.15;;
73599;SDS011;61877;48.246;9.220;2024-02-23T04:57:14;5.70;;;2.03;;
73599;SDS011;61877;48.246;9.220;2024-02-23T04:59:41;6.82;;;2.97;;
73599;SDS011;61877;48.246;9.220;2024-02-23T05:02:08;8.40;;;2.77;;
73599;SDS011;61877;48.246;9.220;2024-02-23T05:04:34;6.55;;;2.67;;
73599;SDS011;61877;48.246;9.220;2024-02-23T05:07:01;6.70;;;2.60;;
73599;SDS011;61877;48.246;9.220;2024-02-23T05:09:27;6.07;;;2.35;;
73599;SDS011;61877;48.246;9.220;2024-02-23T05:11:56;5.93;;;2.40;;
73599;SDS011;61877;48.246;9.220;2024-02-23T05:14:23;5.97;;;2.60;;
73599;SDS011;61877;48.246;9.220;2024-02-23T05:16:49;5.72;;;2.40;;
73599;SDS011;61877;48.246;9.220;2024-02-23T05:19:16;6.78;;;2.97;;
73599;SDS011;61877;48.246;9.220;2024-02-23T05:21:43;6.45;;;2.10;;
73599;SDS011;61877;48.246;9.220;2024-02-23T05:24:10;5.30;;;2.20;;
73599;SDS011;61877;48.246;9.220;2024-02-23T05:26:37;6.43;;;2.20;;
73599;SDS011;61877;48.246;9.220;2024-02-23T05:29:05;5.43;;;2.30;;
73599;SDS011;61877;48.246;9.220;2024-02-23T05:31:45;5.90;;;2.20;;
73599;SDS011;61877;48.246;9.220;2024-02-23T05:34:12;6.60;;;2.58;;
73599;SDS011;61877;48.246;9.220;2024-02-23T05:36:39;7.35;;;2.60;;
73599;SDS011;61877;48.246;9.220;2024-02-23T05:39:06;6.53;;;2.50;;
73599;SDS011;61877;48.246;9.220;2024-02-23T05:41:32;7.35;;;3.28;;
73599;SDS011;61877;48.246;9.220;2024-02-23T05:43:59;6.75;;;2.80;;
73599;SDS011;61877;48.246;9.220;2024-02-23T05:46:27;6.32;;;2.40;;
73599;SDS011;61877;48.246;9.220;2024-02-23T05:48:54;7.22;;;2.40;;
73599;SDS011;61877;48.246;9.220;2024-02-23T05:51:21;6.13;;;2.10;;
73599;SDS011;61877;48.246;9.220;2024-02-23T05:53:47;6.28;;;2.38;;
73599;SDS011;61877;48.246;9.220;2024-02-23T05:56:14;6.75;;;2.10;;
73599;SDS011;61877;48.246;9.220;2024-02-23T05:58:41;6.00;;;1.73;;
73599;SDS011;61877;48.246;9.220;2024-02-23T06:01:09;5.57;;;2.10;;
73599;SDS011;61877;48.246;9.220;2024-02-23T06:03:37;5.40;;;1.70;;
73599;SDS011;61877;48.246;9.220;2024-02-23T06:06:06;5.20;;;1.92;;
73599;SDS011;61877;48.246;9.220;2024-02-23T06:08:33;5.40;;;2.00;;
73599;SDS011;61877;48.246;9.220;2024-02-23T06:11:00;5.00;;;1.90;;
73599;SDS011;61877;48.246;9.220;2024-02-23T06:13:26;5.80;;;2.13;;
73599;SDS011;61877;48.246;9.220;2024-02-23T06:15:53;5.43;;;1.80;;
73599;SDS011;61877;48.246;9.220;2024-02-23T06:18:19;5.53;;;1.88;;
73599;SDS011;61877;48.246;9.220;2024-02-23T06:20:48;6.70;;;2.05;;
73599;SDS011;61877;48.246;9.220;2024-02-23T06:23:15;7.53;;;1.90;;
73599;SDS011;61877;48.246;9.220;2024-02-23T06:25:42;5.50;;;1.90;;
73599;SDS011;61877;48.246;9.220;2024-02-23T06:28:12;6.40;;;1.90;;
73599;SDS011;61877;48.246;9.220;2024-02-23T06:30:39;6.82;;;2.45;;
73599;SDS011;61877;48.246;9.220;2024-02-23T06:33:06;7.00;;;2.50;;
73599;SDS011;61877;48.246;9.220;2024-02-23T06:35:32;5.82;;;2.08;;
73599;SDS011;61877;48.246;9.220;2024-02-23T06:38:00;6.38;;;2.33;;
73599;SDS011;61877;48.246;9.220;2024-02-23T06:40:27;6.23;;;2.10;;
73599;SDS011;61877;48.246;9.220;2024-02-23T06:43:10;5.20;;;2.05;;
73599;SDS011;61877;48.246;9.220;2024-02-23T06:45:40;6.18;;;2.80;;
73599;SDS011;61877;48.246;9.220;2024-02-23T06:48:07;6.22;;;2.10;;
73599;SDS011;61877;48.246;9.220;2024-02-23T06:50:34;5.82;;;2.33;;
73599;SDS011;61877;48.246;9.220;2024-02-23T06:53:03;5.70;;;2.50;;
73599;SDS011;61877;48.246;9.220;2024-02-23T06:55:30;5.72;;;2.20;;
73599;SDS011;61877;48.246;9.220;2024-02-23T06:57:56;6.50;;;2.53;;
73599;SDS011;61877;48.246;9.220;2024-02-23T07:00:23;6.10;;;2.40;;
73599;SDS011;61877;48.246;9.220;2024-02-23T07:02:49;6.10;;;3.00;;
73599;SDS011;61877;48.246;9.220;2024-02-23T07:05:16;7.40;;;3.33;;
73599;SDS011;61877;48.246;9.220;2024-02-23T07:07:43;10.23;;;3.40;;
73599;SDS011;61877;48.246;9.220;2024-02-23T07:10:11;7.53;;;3.28;;
73599;SDS011;61877;48.246;9.220;2024-02-23T07:12:37;8.00;;;3.05;;
73599;SDS011;61877;48.246;9.220;2024-02-23T07:15:04;7.00;;;2.95;;
73599;SDS011;61877;48.246;9.220;2024-02-23T07:17:31;6.90;;;2.77;;
73599;SDS011;61877;48.246;9.220;2024-02-23T07:19:58;6.65;;;2.72;;
73599;SDS011;61877;48.246;9.220;2024-02-23T07:22:24;6.32;;;2.72;;
73599;SDS011;61877;48.246;9.220;2024-02-23T07:24:51;6.63;;;2.70;;
73599;SDS011;61877;48.246;9.220;2024-02-23T07:27:19;6.80;;;2.80;;
73599;SDS011;61877;48.246;9.220;2024-02-23T07:29:45;6.33;;;2.70;;
73599;SDS011;61877;48.246;9.220;2024-02-23T07:32:12;9.50;;;5.03;;
73599;SDS011;61877;48.246;9.220;2024-02-23T07:34:39;10.43;;;4.88;;
73599;SDS011;61877;48.246;9.220;2024-02-23T07:37:06;7.80;;;2.70;;
73599;SDS011;61877;48.246;9.220;2024-02-23T07:39:32;7.20;;;2.83;;
73599;SDS011;61877;48.246;9.220;2024-02-23T07:41:59;7.03;;;2.50;;
73599;SDS011;61877;48.246;9.220;2024-02-23T07:44:27;6.75;;;2.85;;
73599;SDS011;61877;48.246;9.220;2024-02-23T07:46:54;7.50;;;3.85;;
73599;SDS011;61877;48.246;9.220;2024-02-23T07:49:20;11.88;;;5.93;;
73599;SDS011;61877;48.246;9.220;2024-02-23T07:51:47;12.40;;;5.80;;
73599;SDS011;61877;48.246;9.220;2024-02-23T07:54:14;9.23;;;4.50;;
73599;SDS011;61877;48.246;9.220;2024-02-23T07:56:41;9.30;;;5.13;;
73599;SDS011;61877;48.246;9.220;2024-02-23T07:59:07;8.18;;;4.00;;
73599;SDS011;61877;48.246;9.220;2024-02-23T08:01:35;10.30;;;4.05;;
73599;SDS011;61877;48.246;9.220;2024-02-23T08:04:02;7.43;;;3.17;;
73599;SDS011;61877;48.246;9.220;2024-02-23T08:06:29;7.07;;;2.87;;
73599;SDS011;61877;48.246;9.220;2024-02-23T08:08:55;6.60;;;2.63;;
73599;SDS011;61877;48.246;9.220;2024-02-23T08:11:22;6.82;;;2.70;;
73599;SDS011;61877;48.246;9.220;2024-02-23T08:13:49;6.03;;;2.30;;
73599;SDS011;61877;48.246;9.220;2024-02-23T08:16:16;6.25;;;2.22;;
73599;SDS011;61877;48.246;9.220;2024-02-23T08:18:44;6.77;;;2.63;;
73599;SDS011;61877;48.246;9.220;2024-02-23T08:21:13;7.07;;;2.58;;
73599;SDS011;61877;48.246;9.220;2024-02-23T08:23:39;8.10;;;3.00;;
73599;SDS011;61877;48.246;9.220;2024-02-23T08:26:06;6.50;;;2.20;;
73599;SDS011;61877;48.246;9.220;2024-02-23T08:28:33;6.07;;;2.72;;
73599;SDS011;61877;48.246;9.220;2024-02-23T08:30:59;6.07;;;2.33;;
73599;SDS011;61877;48.246;9.220;2024-02-23T08:33:26;7.45;;;2.30;;
73599;SDS011;61877;48.246;9.220;2024-02-23T08:35:54;5.88;;;2.20;;
73599;SDS011;61877;48.246;9.220;2024-02-23T08:38:21;6.18;;;2.70;;
73599;SDS011;61877;48.246;9.220;2024-02-23T08:40:48;8.40;;;2.67;;
73599;SDS011;61877;48.246;9.220;2024-02-23T08:43:14;7.30;;;2.40;;
73599;SDS011;61877;48.246;9.220;2024-02-23T08:45:41;8.23;;;2.35;;
73599;SDS011;61877;48.246;9.220;2024-02-23T08:48:10;6.50;;;2.80;;
73599;SDS011;61877;48.246;9.220;2024-02-23T08:50:39;7.07;;;2.55;;
73599;SDS011;61877;48.246;9.220;2024-02-23T08:53:07;8.10;;;2.50;;
73599;SDS011;61877;48.246;9.220;2024-02-23T08:55:34;6.30;;;2.17;;
73599;SDS011;61877;48.246;9.220;2024-02-23T08:58:01;6.50;;;2.33;;
73599;SDS011;61877;48.246;9.220;2024-02-23T09:00:27;5.60;;;2.33;;
73599;SDS011;61877;48.246;9.220;2024-02-23T09:02:57;9.65;;;2.58;;
73599;SDS011;61877;48.246;9.220;2024-02-23T09:05:26;7.75;;;3.25;;
73599;SDS011;61877;48.246;9.220;2024-02-23T09:07:53;6.73;;;2.47;;
73599;SDS011;61877;48.246;9.220;2024-02-23T09:10:21;8.18;;;3.35;;
73599;SDS011;61877;48.246;9.220;2024-02-23T09:12:48;8.77;;;2.72;;
73599;SDS011;61877;48.246;9.220;2024-02-23T09:15:14;6.43;;;2.60;;
73599;SDS011;61877;48.246;9.220;2024-02-23T09:17:44;7.53;;;2.22;;
73599;SDS011;61877;48.246;9.220;2024-02-23T09:20:11;6.93;;;1.83;;
73599;SDS011;61877;48.246;9.220;2024-02-23T09:22:38;7.40;;;2.13;;
73599;SDS011;61877;48.246;9.220;2024-02-23T09:25:05;7.28;;;1.83;;
73599;SDS011;61877;48.246;9.220;2024-02-23T09:27:33;6.20;;;2.60;;
73599;SDS011;61877;48.246;9.220;2024-02-23T09:30:00;8.30;;;2.65;;
73599;SDS011;61877;48.246;9.220;2024-02-23T09:32:27;6.30;;;1.87;;
73599;SDS011;61877;48.246;9.220;2024-02-23T09:34:53;6.75;;;2.20;;
73599;SDS011;61877;48.246;9.220;2024-02-23T09:37:20;5.50;;;2.13;;
73599;SDS011;61877;48.246;9.220;2024-02-23T09:39:47;6.25;;;1.80;;
73599;SDS011;61877;48.246;9.220;2024-02-23T09:42:13;16.50;;;5.85;;
73599;SDS011;61877;48.246;9.220;2024-02-23T09:44:42;6.57;;;2.20;;
73599;SDS011;61877;48.246;9.220;2024-02-23T09:47:10;7.72;;;2.53;;
73599;SDS011;61877;48.246;9.220;2024-02-23T09:49:38;8.10;;;2.83;;
73599;SDS011;61877;48.246;9.220;2024-02-23T09:52:06;7.40;;;2.35;;
73599;SDS011;61877;48.246;9.220;2024-02-23T09:54:34;7.25;;;2.50;;
73599;SDS011;61877;48.246;9.220;2024-02-23T09:57:01;8.30;;;2.30;;
73599;SDS011;61877;48.246;9.220;2024-02-23T09:59:32;6.45;;;1.88;;
73599;SDS011;61877;48.246;9.220;2024-02-23T10:02:02;8.32;;;2.78;;
73599;SDS011;61877;48.246;9.220;2024-02-23T10:04:33;9.13;;;2.80;;
73599;SDS011;61877;48.246;9.220;2024-02-23T10:06:59;7.72;;;2.25;;
73599;SDS011;61877;48.246;9.220;2024-02-23T10:09:26;8.60;;;1.77;;
73599;SDS011;61877;48.246;9.220;2024-02-23T10:11:53;7.03;;;1.80;;
73599;SDS011;61877;48.246;9.220;2024-02-23T10:14:20;6.15;;;2.10;;
73599;SDS011;61877;48.246;9.220;2024-02-23T10:16:47;6.18;;;1.80;;
73599;SDS011;61877;48.246;9.220;2024-02-23T10:19:15;7.18;;;2.05;;
73599;SDS011;61877;48.246;9.220;2024-02-23T10:21:42;5.87;;;1.87;;
73599;SDS011;61877;48.246;9.220;2024-02-23T10:24:09;5.85;;;2.08;;
73599;SDS011;61877;48.246;9.220;2024-02-23T10:26:36;6.85;;;2.10;;
73599;SDS011;61877;48.246;9.220;2024-02-23T10:29:02;6.32;;;1.80;;
73599;SDS011;61877;48.246;9.220;2024-02-23T10:31:29;7.32;;;1.90;;
73599;SDS011;61877;48.246;9.220;2024-02-23T10:34:00;7.30;;;1.90;;
73599;SDS011;61877;48.246;9.220;2024-02-23T10:36:34;5.45;;;1.60;;
73599;SDS011;61877;48.246;9.220;2024-02-23T10:39:02;6.30;;;1.92;;
73599;SDS011;61877;48.246;9.220;2024-02-23T10:41:31;6.38;;;1.80;;
73599;SDS011;61877;48.246;9.220;2024-02-23T10:44:01;6.68;;;1.88;;
73599;SDS011;61877;48.246;9.220;2024-02-23T10:46:29;5.90;;;1.73;;
73599;SDS011;61877;48.246;9.220;2024-02-23T10:48:57;5.95;;;1.65;;
73599;SDS011;61877;48.246;9.220;2024-02-23T10:51:25;7.28;;;2.00;;
73599;SDS011;61877;48.246;9.220;2024-02-23T10:53:53;7.82;;;2.00;;
73599;SDS011;61877;48.246;9.220;2024-02-23T10:56:19;7.57;;;2.15;;
73599;SDS011;61877;48.246;9.220;2024-02-23T10:58:46;7.70;;;1.80;;
73599;SDS011;61877;48.246;9.220;2024-02-23T11:01:13;6.50;;;1.80;;
73599;SDS011;61877;48.246;9.220;2024-02-23T11:03:41;7.55;;;1.77;;
73599;SDS011;61877;48.246;9.220;2024-02-23T11:06:10;6.38;;;1.85;;
73599;SDS011;61877;48.246;9.220;2024-02-23T11:08:38;5.95;;;1.90;;
73599;SDS011;61877;48.246;9.220;2024-02-23T11:11:09;6.80;;;2.10;;
73599;SDS011;61877;48.246;9.220;2024-02-23T11:13:37;6.78;;;2.10;;
73599;SDS011;61877;48.246;9.220;2024-02-23T11:16:04;9.82;;;2.72;;
73599;SDS011;61877;48.246;9.220;2024-02-23T11:18:35;7.57;;;2.10;;
73599;SDS011;61877;48.246;9.220;2024-02-23T11:21:05;8.35;;;2.70;;
73599;SDS011;61877;48.246;9.220;2024-02-23T11:23:39;6.97;;;2.10;;
73599;SDS011;61877;48.246;9.220;2024-02-23T11:26:08;8.00;;;2.55;;
73599;SDS011;61877;48.246;9.220;2024-02-23T11:28:43;8.98;;;3.00;;
73599;SDS011;61877;48.246;9.220;2024-02-23T11:31:13;8.18;;;2.35;;
73599;SDS011;61877;48.246;9.220;2024-02-23T11:33:49;8.93;;;2.28;;
73599;SDS011;61877;48.246;9.220;2024-02-23T11:36:23;7.47;;;1.90;;
73599;SDS011;61877;48.246;9.220;2024-02-23T11:38:53;8.05;;;2.15;;
73599;SDS011;61877;48.246;9.220;2024-02-23T11:41:23;6.97;;;1.80;;
73599;SDS011;61877;48.246;9.220;2024-02-23T11:43:51;6.18;;;2.25;;
73599;SDS011;61877;48.246;9.220;2024-02-23T11:46:18;6.10;;;2.20;;
73599;SDS011;61877;48.246;9.220;2024-02-23T11:48:45;6.83;;;1.70;;
73599;SDS011;61877;48.246;9.220;2024-02-23T11:51:14;5.97;;;1.70;;
73599;SDS011;61877;48.246;9.220;2024-02-23T11:53:41;6.80;;;2.47;;
73599;SDS011;61877;48.246;9.220;2024-02-23T11:56:10;5.70;;;2.08;;
73599;SDS011;61877;48.246;9.220;2024-02-23T11:58:39;7.20;;;2.00;;
73599;SDS011;61877;48.246;9.220;2024-02-23T12:01:06;8.20;;;2.33;;
73599;SDS011;61877;48.246;9.220;2024-02-23T12:03:32;7.63;;;1.90;;
73599;SDS011;61877;48.246;9.220;2024-02-23T12:06:00;6.72;;;2.22;;
73599;SDS011;61877;48.246;9.220;2024-02-23T12:08:27;7.45;;;1.98;;
73599;SDS011;61877;48.246;9.220;2024-02-23T12:10:55;7.10;;;1.90;;
73599;SDS011;61877;48.246;9.220;2024-02-23T12:13:23;7.30;;;1.90;;
73599;SDS011;61877;48.246;9.220;2024-02-23T12:15:53;9.88;;;2.00;;
73599;SDS011;61877;48.246;9.220;2024-02-23T12:18:23;6.45;;;1.98;;
73599;SDS011;61877;48.246;9.220;2024-02-23T12:20:50;7.15;;;1.98;;
73599;SDS011;61877;48.246;9.220;2024-02-23T12:23:17;7.88;;;1.95;;
73599;SDS011;61877;48.246;9.220;2024-02-23T12:25:51;9.60;;;2.40;;
73599;SDS011;61877;48.246;9.220;2024-02-23T12:28:19;7.53;;;1.77;;
73599;SDS011;61877;48.246;9.220;2024-02-23T12:30:45;6.45;;;1.95;;
73599;SDS011;61877;48.246;9.220;2024-02-23T12:33:14;6.85;;;1.92;;
73599;SDS011;61877;48.246;9.220;2024-02-23T12:35:42;7.30;;;1.90;;
73599;SDS011;61877;48.246;9.220;2024-02-23T12:38:09;6.63;;;1.50;;
73599;SDS011;61877;48.246;9.220;2024-02-23T12:40:35;8.55;;;3.25;;
73599;SDS011;61877;48.246;9.220;2024-02-23T12:43:02;7.63;;;2.40;;
73599;SDS011;61877;48.246;9.220;2024-02-23T12:45:29;7.53;;;1.77;;
73599;SDS011;61877;48.246;9.220;2024-02-23T12:47:55;5.93;;;1.88;;
73599;SDS011;61877;48.246;9.220;2024-02-23T12:50:23;11.57;;;3.13;;
73599;SDS011;61877;48.246;9.220;2024-02-23T12:52:53;9.43;;;2.03;;
73599;SDS011;61877;48.246;9.220;2024-02-23T12:55:21;6.20;;;1.70;;
73599;SDS011;61877;48.246;9.220;2024-02-23T12:57:47;5.97;;;1.50;;
73599;SDS011;61877;48.246;9.220;2024-02-23T13:00:15;8.32;;;1.70;;
73599;SDS011;61877;48.246;9.220;2024-02-23T13:02:42;5.57;;;1.53;;
73599;SDS011;61877;48.246;9.220;2024-02-23T13:05:08;6.78;;;1.90;;
73599;SDS011;61877;48.246;9.220;2024-02-23T13:07:37;7.57;;;2.13;;
73599;SDS011;61877;48.246;9.220;2024-02-23T13:10:04;10.25;;;2.30;;
73599;SDS011;61877;48.246;9.220;2024-02-23T13:12:31;8.52;;;2.10;;
73599;SDS011;61877;48.246;9.220;2024-02-23T13:14:58;6.63;;;1.90;;
73599;SDS011;61877;48.246;9.220;2024-02-23T13:17:25;7.13;;;2.00;;
73599;SDS011;61877;48.246;9.220;2024-02-23T13:19:54;8.20;;;2.22;;
73599;SDS011;61877;48.246;9.220;2024-02-23T13:22:37;18.25;;;5.30;;
73599;SDS011;61877;48.246;9.220;2024-02-23T13:25:04;9.10;;;2.30;;
73599;SDS011;61877;48.246;9.220;2024-02-23T13:27:31;7.90;;;2.10;;
73599;SDS011;61877;48.246;9.220;2024-02-23T13:29:57;8.15;;;2.50;;
73599;SDS011;61877;48.246;9.220;2024-02-23T13:32:24;11.90;;;3.03;;
73599;SDS011;61877;48.246;9.220;2024-02-23T13:34:51;12.15;;;3.42;;
73599;SDS011;61877;48.246;9.220;2024-02-23T13:37:18;7.72;;;2.38;;
73599;SDS011;61877;48.246;9.220;2024-02-23T13:39:48;7.23;;;2.30;;
73599;SDS011;61877;48.246;9.220;2024-02-23T13:42:15;7.78;;;2.15;;
73599;SDS011;61877;48.246;9.220;2024-02-23T13:44:44;8.00;;;2.40;;
73599;SDS011;61877;48.246;9.220;2024-02-23T13:47:12;7.55;;;1.92;;
73599;SDS011;61877;48.246;9.220;2024-02-23T13:49:38;11.63;;;3.25;;
73599;SDS011;61877;48.246;9.220;2024-02-23T13:52:05;10.90;;;2.60;;
73599;SDS011;61877;48.246;9.220;2024-02-23T13:54:32;8.93;;;2.67;;
73599;SDS011;61877;48.246;9.220;2024-02-23T13:57:00;8.05;;;2.20;;
73599;SDS011;61877;48.246;9.220;2024-02-23T13:59:27;7.45;;;2.30;;
73599;SDS011;61877;48.246;9.220;2024-02-23T14:01:54;6.50;;;1.92;;
73599;SDS011;61877;48.246;9.220;2024-02-23T14:04:21;7.67;;;1.57;;
73599;SDS011;61877;48.246;9.220;2024-02-23T14:06:48;7.25;;;1.75;;
73599;SDS011;61877;48.246;9.220;2024-02-23T14:09:16;6.47;;;1.92;;
73599;SDS011;61877;48.246;9.220;2024-02-23T14:11:42;8.23;;;1.58;;
73599;SDS011;61877;48.246;9.220;2024-02-23T14:14:13;7.30;;;2.08;;
73599;SDS011;61877;48.246;9.220;2024-02-23T14:16:40;6.70;;;1.97;;
73599;SDS011;61877;48.246;9.220;2024-02-23T14:19:06;7.70;;;1.83;;
73599;SDS011;61877;48.246;9.220;2024-02-23T14:21:34;7.25;;;1.90;;
73599;SDS011;61877;48.246;9.220;2024-02-23T14:24:01;8.30;;;2.80;;
73599;SDS011;61877;48.246;9.220;2024-02-23T14:26:28;7.15;;;1.40;;
73599;SDS011;61877;48.246;9.220;2024-02-23T14:28:57;6.17;;;1.50;;
73599;SDS011;61877;48.246;9.220;2024-02-23T14:31:25;9.35;;;2.03;;
73599;SDS011;61877;48.246;9.220;2024-02-23T14:33:52;8.82;;;2.20;;
73599;SDS011;61877;48.246;9.220;2024-02-23T14:36:21;6.15;;;1.27;;
73599;SDS011;61877;48.246;9.220;2024-02-23T14:38:48;8.27;;;1.90;;
73599;SDS011;61877;48.246;9.220;2024-02-23T14:41:16;7.07;;;1.80;;
73599;SDS011;61877;48.246;9.220;2024-02-23T14:43:43;6.25;;;1.30;;
73599;SDS011;61877;48.246;9.220;2024-02-23T14:46:09;6.68;;;1.42;;
73599;SDS011;61877;48.246;9.220;2024-02-23T14:48:37;7.38;;;1.45;;